createdAt,value
2019-05-22T00:03:31.757Z,14.1
2019-05-22T00:08:39.361Z,14
2019-05-22T00:13:44.237Z,14
2019-05-22T00:18:49.283Z,14
2019-05-22T00:23:54.073Z,14
2019-05-22T00:28:58.899Z,14
2019-05-22T00:34:03.692Z,13.9
2019-05-22T00:39:08.600Z,13.9
2019-05-22T00:44:11.904Z,13.9
2019-05-22T00:49:16.697Z,13.9
2019-05-22T00:54:21.474Z,13.9
2019-05-22T00:59:27.105Z,13.9
2019-05-22T01:04:30.461Z,13.9
2019-05-22T01:09:35.432Z,13.9
2019-05-22T01:14:44.817Z,14
2019-05-22T01:19:49.807Z,13.9
2019-05-22T01:24:54.837Z,13.9
2019-05-22T01:29:59.723Z,13.9
2019-05-22T01:35:04.653Z,13.9
2019-05-22T01:40:09.837Z,13.9
2019-05-22T01:45:13.362Z,14
2019-05-22T01:50:18.470Z,13.9
2019-05-22T01:55:22.047Z,13.9
2019-05-22T02:00:27.461Z,13.9
2019-05-22T02:05:32.632Z,13.8
2019-05-22T02:10:37.588Z,13.7
2019-05-22T02:15:42.612Z,13.7
2019-05-22T02:20:47.517Z,13.6
2019-05-22T02:25:52.578Z,13.6
2019-05-22T02:30:57.915Z,13.5
2019-05-22T02:36:02.676Z,13.5
2019-05-22T02:41:07.556Z,13.5
2019-05-22T02:46:12.631Z,13.5
2019-05-22T02:51:19.887Z,13.5
2019-05-22T02:56:24.679Z,13.5
2019-05-22T03:01:30.268Z,13.5
2019-05-22T03:06:35.057Z,13.4
2019-05-22T03:11:39.968Z,13.4
2019-05-22T03:16:44.945Z,13.5
2019-05-22T03:21:50.014Z,13.5
2019-05-22T03:26:54.779Z,13.5
2019-05-22T03:31:59.744Z,13.5
2019-05-22T03:37:04.783Z,13.7
2019-05-22T03:42:09.773Z,13.7
2019-05-22T03:47:17.444Z,13.8
2019-05-22T03:52:22.665Z,13.8
2019-05-22T03:57:27.447Z,13.9
2019-05-22T04:02:32.549Z,14
2019-05-22T04:07:37.316Z,14.1
2019-05-22T04:12:42.335Z,14.2
2019-05-22T04:17:47.168Z,14.2
2019-05-22T04:22:52.368Z,14.3
2019-05-22T04:27:57.444Z,14.5
2019-05-22T04:33:02.510Z,14.4
2019-05-22T04:38:07.313Z,14.3
2019-05-22T04:43:12.411Z,14.3
2019-05-22T04:48:17.328Z,14.3
2019-05-22T04:53:22.400Z,14.4
2019-05-22T04:58:27.758Z,14.5
2019-05-22T05:03:33.447Z,14.6
2019-05-22T05:08:38.947Z,14.6
2019-05-22T05:13:44.275Z,14.8
2019-05-22T05:18:49.635Z,14.8
2019-05-22T05:23:54.556Z,14.8
2019-05-22T05:28:59.509Z,15
2019-05-22T05:34:04.495Z,15.2
2019-05-22T05:39:09.859Z,16.2
2019-05-22T05:44:15.406Z,16.2
2019-05-22T05:49:20.441Z,16.6
2019-05-22T05:54:25.580Z,16.6
2019-05-22T05:59:31.002Z,16.6
2019-05-22T06:09:41.586Z,17.2
2019-05-22T06:14:47.413Z,17.5
2019-05-22T06:19:52.780Z,17.4
2019-05-22T06:24:56.732Z,17.3
2019-05-22T06:30:00.333Z,17.4
2019-05-22T06:35:05.340Z,17.6
2019-05-22T06:40:08.823Z,17.6
2019-05-22T06:45:13.756Z,18.1
2019-05-22T06:50:18.592Z,18.7
2019-05-22T06:55:23.941Z,19.4
2019-05-22T07:00:28.756Z,20.2
2019-05-22T07:05:34.476Z,20.3
2019-05-22T07:10:39.802Z,20.3
2019-05-22T07:15:45.138Z,20.6
2019-05-22T07:20:50.762Z,21.7
2019-05-22T07:25:56.216Z,21.3
2019-05-22T07:31:01.254Z,21.3
2019-05-22T07:36:17.636Z,23.2
2019-05-22T07:41:12.740Z,23.1
2019-05-22T07:46:16.397Z,22.3
2019-05-22T07:51:21.203Z,22.8
2019-05-22T07:56:25.122Z,23
2019-05-22T08:01:28.630Z,22.3
2019-05-22T08:06:34.222Z,22.4
2019-05-22T08:11:37.622Z,22.4
2019-05-22T08:16:42.457Z,22.2
2019-05-22T08:21:45.948Z,21.8
2019-05-22T08:26:56.681Z,20.7
2019-05-22T08:31:51.548Z,20.7
2019-05-22T08:36:56.544Z,20.1
2019-05-22T08:42:00.052Z,20.2
2019-05-22T08:47:05.129Z,20.1
2019-05-22T08:52:25.629Z,21.1
2019-05-22T08:57:10.482Z,21.1
2019-05-22T09:02:15.955Z,20.6
2019-05-22T09:07:21.131Z,20.6
2019-05-22T09:12:25.972Z,20.6
2019-05-22T09:17:31.092Z,20
2019-05-22T09:22:43.025Z,19.4
2019-05-22T09:27:38.062Z,19.5
2019-05-22T09:32:42.888Z,19.9
2019-05-22T09:37:48.275Z,19.3
2019-05-22T09:42:51.779Z,19.3
2019-05-22T09:47:56.712Z,19
2019-05-22T09:53:00.076Z,19.6
2019-05-22T09:58:05.241Z,19.5
2019-05-22T10:03:10.151Z,19.1
2019-05-22T10:08:15.853Z,19.2
2019-05-22T10:13:20.662Z,19.2
2019-05-22T10:18:25.909Z,18.6
2019-05-22T10:23:30.676Z,19
2019-05-22T10:28:35.509Z,19.2
2019-05-22T10:33:40.341Z,18.9
2019-05-22T10:38:45.312Z,19.3
2019-05-22T10:43:50.273Z,19.5
2019-05-22T10:48:55.074Z,19.2
2019-05-22T10:53:59.999Z,19.1
2019-05-22T10:59:04.870Z,19.1
2019-05-22T11:04:09.933Z,19.4
2019-05-22T11:09:14.890Z,18.9
2019-05-22T11:14:20.069Z,19.1
2019-05-22T11:19:25.182Z,19.1
2019-05-22T11:24:30.088Z,19.1
2019-05-22T11:29:35.304Z,18.9
2019-05-22T11:34:40.350Z,18.8
2019-05-22T11:39:46.927Z,18.4
2019-05-22T11:44:53.528Z,18.4
2019-05-22T11:49:58.563Z,18.5
2019-05-22T11:55:03.318Z,18.4
2019-05-22T12:00:11.176Z,18.8
2019-05-22T12:05:16.059Z,18.7
2019-05-22T12:10:21.417Z,19.1
2019-05-22T12:15:26.195Z,19.1
2019-05-22T12:20:31.139Z,19
2019-05-22T12:25:35.959Z,19.6
2019-05-22T12:30:41.123Z,19.7
2019-05-22T12:35:47.226Z,20
2019-05-22T12:40:52.055Z,19.9
2019-05-22T12:45:56.986Z,20.3
2019-05-22T12:51:02.793Z,20.6
2019-05-22T12:56:07.824Z,21
2019-05-22T13:01:13.032Z,20.2
2019-05-22T13:06:16.662Z,20.3
2019-05-22T13:11:23.550Z,19.2
2019-05-22T13:16:28.698Z,19.2
2019-05-22T13:21:32.126Z,18.8
2019-05-22T13:26:38.138Z,18.2
2019-05-22T13:31:43.030Z,18.2
2019-05-22T13:36:47.957Z,18.5
2019-05-22T13:41:52.829Z,18.7
2019-05-22T13:46:57.753Z,19.1
2019-05-22T13:52:02.673Z,19.5
2019-05-22T13:57:07.601Z,19.3
2019-05-22T14:02:12.621Z,20
2019-05-22T14:07:16.170Z,20.4
2019-05-22T14:12:21.800Z,20.5
2019-05-22T14:17:26.860Z,20.2
2019-05-22T14:22:31.926Z,19.8
2019-05-22T14:27:43.616Z,19.6
2019-05-22T14:32:49.420Z,19.8
2019-05-22T14:37:54.419Z,19.7
2019-05-22T14:42:59.654Z,19.6
2019-05-22T14:48:07.494Z,19.5
2019-05-22T14:53:12.488Z,19
2019-05-22T14:58:17.296Z,18.3
2019-05-22T15:03:24.476Z,18
2019-05-22T15:08:29.692Z,18.1
2019-05-22T15:13:34.952Z,18.5
2019-05-22T15:18:40.208Z,18
2019-05-22T15:23:45.482Z,18
2019-05-22T15:28:50.245Z,17.5
2019-05-22T15:33:55.280Z,17.2
2019-05-22T15:39:00.015Z,17
2019-05-22T15:44:04.900Z,16.9
2019-05-22T15:49:09.825Z,16.9
2019-05-22T15:54:14.761Z,16.8
2019-05-22T15:59:19.618Z,16.9
2019-05-22T16:04:24.546Z,17
2019-05-22T16:09:29.728Z,17.3
2019-05-22T16:14:35.401Z,17.3
2019-05-22T16:19:40.543Z,17
2019-05-22T16:24:45.512Z,17.2
2019-05-22T16:29:50.945Z,17.2
2019-05-22T16:34:56.138Z,17.2
2019-05-22T16:40:00.928Z,17.1
2019-05-22T16:45:07.294Z,16.9
2019-05-22T16:50:12.163Z,16.8
2019-05-22T16:55:17.459Z,16.8
2019-05-22T17:00:22.599Z,16.7
2019-05-22T17:05:27.890Z,16.7
2019-05-22T17:10:32.857Z,16.5
2019-05-22T17:15:39.659Z,16.3
2019-05-22T17:20:46.449Z,16.3
2019-05-22T17:25:52.836Z,16.1
2019-05-22T17:30:57.733Z,16.1
2019-05-22T17:36:07.100Z,16.1
2019-05-22T17:41:12.078Z,16.1
2019-05-22T17:46:17.045Z,16.1
2019-05-22T17:51:21.900Z,16.1
2019-05-22T17:56:26.708Z,16.3
2019-05-22T18:01:33.985Z,16.5
2019-05-22T18:06:40.806Z,16.5
2019-05-22T18:11:45.805Z,16.2
2019-05-22T18:16:51.255Z,16.1
2019-05-22T18:21:56.164Z,16
2019-05-22T18:27:01.864Z,15.9
2019-05-22T18:32:06.803Z,15.8
2019-05-22T18:37:11.933Z,15.9
2019-05-22T18:42:16.756Z,15.8
2019-05-22T18:47:21.781Z,15.8
2019-05-22T18:52:45.885Z,15.7
2019-05-22T18:57:29.460Z,15.7
2019-05-22T19:02:37.192Z,15.7
2019-05-22T19:07:42.008Z,15.7
2019-05-22T19:12:46.746Z,15.7
2019-05-22T19:17:52.006Z,15.6
2019-05-22T19:23:03.350Z,15.6
2019-05-22T19:28:01.359Z,15.6
2019-05-22T19:33:06.534Z,15.6
2019-05-22T19:38:14.572Z,15.5
2019-05-22T19:43:17.978Z,15.5
2019-05-22T19:48:22.923Z,15.5
2019-05-22T19:53:27.951Z,15.5
2019-05-22T19:58:32.935Z,15.4
2019-05-22T20:03:37.841Z,15.3
2019-05-22T20:08:43.244Z,15.2
2019-05-22T20:13:48.190Z,15.2
2019-05-22T20:18:53.303Z,15
2019-05-22T20:23:58.176Z,14.9
2019-05-22T20:29:03.849Z,14.6
2019-05-22T20:34:07.318Z,14.6
2019-05-22T20:39:12.150Z,14.5
2019-05-22T20:44:16.996Z,14.3
2019-05-22T20:49:24.329Z,14.3
2019-05-22T20:54:29.672Z,14.2
2019-05-22T20:59:34.774Z,14.1
2019-05-22T21:04:39.598Z,14.1
2019-05-22T21:09:44.692Z,14.1
2019-05-22T21:14:49.981Z,14.1
2019-05-22T21:19:55.017Z,14.1
2019-05-22T21:24:59.793Z,14
2019-05-22T21:30:10.944Z,13.9
2019-05-22T21:35:14.401Z,13.9
2019-05-22T21:40:19.347Z,13.8
2019-05-22T21:45:24.348Z,13.8
2019-05-22T21:50:29.439Z,13.8
2019-05-22T21:55:34.564Z,13.8
2019-05-22T22:00:40.184Z,13.9
2019-05-22T22:05:45.019Z,13.9
2019-05-22T22:10:49.842Z,13.9
2019-05-22T22:15:55.189Z,14
2019-05-22T22:20:59.294Z,14
2019-05-22T22:26:20.289Z,14
2019-05-22T22:31:11.238Z,14
2019-05-22T22:36:16.137Z,14
2019-05-22T22:41:21.232Z,14.1
2019-05-22T22:46:26.121Z,14
2019-05-22T22:51:31.514Z,13.9
2019-05-22T22:56:36.474Z,13.9
2019-05-22T23:01:41.591Z,13.9
2019-05-22T23:06:46.459Z,13.9
2019-05-22T23:11:51.388Z,13.8
2019-05-22T23:16:56.307Z,13.8
2019-05-22T23:22:00.295Z,13.8
2019-05-22T23:27:05.326Z,13.8
2019-05-22T23:32:10.236Z,13.9
2019-05-22T23:37:15.142Z,13.9
2019-05-22T23:42:20.233Z,13.9
2019-05-22T23:47:25.578Z,13.9
2019-05-22T23:52:30.938Z,13.9
2019-05-22T23:57:35.782Z,13.9
